Albatros — C6CN4 — position and weather

sailwx.info

Track history (hours):
 
Tides and Currents Weather Stations Pressure Air Temp Water Temp Dewpoint Dewpoint Depression Visibility Wind Speed Wind Dir Waves Ship Positions

Albatros

Last reported at 2019-Jan-08 15:24 UTC. Time now 2019-Jan-23 17:48 UTC.
Position N 09°11' W 079°52'.
Warning: this ship's position is 15 days out of date.

Length 205.5 m; beam 25.2 m; draft 7.6 m.

Type: Passenger vessel. MMSI: 308784000.

Date/timePositionNaut miles runAvg speedWind from/ knotsBaromVisibWave heightAir tempDewpointWater temp
2019-Jan-08 15:24N 09°11' W 079°52'512.8
2019-Jan-08 15:01N 09°14' W 079°55'1 2.1
2019-Jan-08 14:30N 09°15' W 079°55'0 0.0
2019-Jan-08 14:00N 09°15' W 079°55'0 0.9
2019-Jan-08 13:30N 09°16' W 079°55'1 1.3
2019-Jan-08 13:00N 09°16' W 079°55'0 0.4
2019-Jan-08 12:26N 09°17' W 079°55'1 1.6
2019-Jan-08 11:54N 09°17' W 079°55'1 2.2
2019-Jan-08 11:30N 09°18' W 079°55'2 3.5
2019-Jan-08 11:00N 09°20' W 079°55'3 5.9
2019-Jan-08 10:30N 09°23' W 079°55'4 8.3
2019-Jan-08 10:01N 09°27' W 079°55'611.1
2019-Jan-08 09:26N 09°33' W 079°52'511.6
2019-Jan-08 09:00N 09°38' W 079°51'243 8.0
2019-Jan-07 02:38N 10°17' W 075°48'317.4
2019-Jan-07 02:29N 10°17' W 075°45'817.0
2019-Jan-07 02:00N 10°19' W 075°37'510.6
2019-Jan-07 01:30N 10°20' W 075°32'4 7.7
2019-Jan-07 01:00N 10°24' W 075°32'0 0.0
2019-Jan-07 00:28N 10°24' W 075°32'0 0.0
2019-Jan-06 23:58N 10°24' W 075°32'0 0.0
2019-Jan-06 23:28N 10°24' W 075°32'0 0.0
2019-Jan-06 22:58N 10°24' W 075°32'0 0.0
2019-Jan-06 22:28N 10°24' W 075°32'0 0.0
2019-Jan-06 21:58N 10°24' W 075°32'0 0.0
2019-Jan-06 21:28N 10°24' W 075°32'0 0.0
2019-Jan-06 20:58N 10°24' W 075°32'0 0.0
2019-Jan-06 20:22N 10°24' W 075°32'0 0.0
2019-Jan-06 19:58N 10°24' W 075°32'0 0.0
2019-Jan-06 19:28N 10°24' W 075°32'0 0.0
2019-Jan-06 18:52N 10°24' W 075°32'0 0.0
2019-Jan-06 18:28N 10°24' W 075°32'1 3.2
2019-Jan-06 18:00N 10°23' W 075°33'1 2.9
2019-Jan-06 17:30N 10°22' W 075°32'2 4.7
2019-Jan-06 17:00N 10°20' W 075°33'4 8.8
2019-Jan-06 16:30N 10°20' W 075°38'714.8
2019-Jan-06 16:00N 10°25' W 075°42'2017.9
2019-Jan-06 14:53N 10°44' W 075°35'  
2019-Jan-02 09:39N 14°04' W 061°04'3 9.1
2019-Jan-02 09:18N 14°07' W 061°06'3 8.9
2019-Jan-02 08:58N 14°09' W 061°08'5 9.4
2019-Jan-02 08:28N 14°13' W 061°10'4 9.5
2019-Jan-02 08:00N 14°17' W 061°13'4 8.9
2019-Jan-02 07:30N 14°20' W 061°16'7 8.8
2019-Jan-02 06:43N 14°27' W 061°19'2 0.6
2019-Jan-02 03:58N 14°27' W 061°20'4 7.4
2019-Jan-02 03:26N 14°27' W 061°16'15 1.0
2019-Jan-01 12:31N 14°36' W 061°05'0 0.2
2019-Jan-01 12:23N 14°36' W 061°05'  
Track history (hours):
 
Tides and Currents Weather Stations Pressure Air Temp Water Temp Dewpoint Dewpoint Depression Visibility Wind Speed Wind Dir Waves Ship Positions

Albatros

Last reported at 2019-Jan-08 15:24 UTC. Time now 2019-Jan-23 17:48 UTC.
Position N 09°11' W 079°52'.
Warning: this ship's position is 15 days out of date.

Length 205.5 m; beam 25.2 m; draft 7.6 m.

Type: Passenger vessel. MMSI: 308784000.

Date/timePositionNaut miles runAvg speedWind from/ knotsBaromVisibWave heightAir tempDewpointWater temp
2019-Jan-08 15:24N 09°11' W 079°52'512.8
2019-Jan-08 15:01N 09°14' W 079°55'1 2.1
2019-Jan-08 14:30N 09°15' W 079°55'0 0.0
2019-Jan-08 14:00N 09°15' W 079°55'0 0.9
2019-Jan-08 13:30N 09°16' W 079°55'1 1.3
2019-Jan-08 13:00N 09°16' W 079°55'0 0.4
2019-Jan-08 12:26N 09°17' W 079°55'1 1.6
2019-Jan-08 11:54N 09°17' W 079°55'1 2.2
2019-Jan-08 11:30N 09°18' W 079°55'2 3.5
2019-Jan-08 11:00N 09°20' W 079°55'3 5.9
2019-Jan-08 10:30N 09°23' W 079°55'4 8.3
2019-Jan-08 10:01N 09°27' W 079°55'611.1
2019-Jan-08 09:26N 09°33' W 079°52'511.6
2019-Jan-08 09:00N 09°38' W 079°51'243 8.0
2019-Jan-07 02:38N 10°17' W 075°48'317.4
2019-Jan-07 02:29N 10°17' W 075°45'817.0
2019-Jan-07 02:00N 10°19' W 075°37'510.6
2019-Jan-07 01:30N 10°20' W 075°32'4 7.7
2019-Jan-07 01:00N 10°24' W 075°32'0 0.0
2019-Jan-07 00:28N 10°24' W 075°32'0 0.0
2019-Jan-06 23:58N 10°24' W 075°32'0 0.0
2019-Jan-06 23:28N 10°24' W 075°32'0 0.0
2019-Jan-06 22:58N 10°24' W 075°32'0 0.0
2019-Jan-06 22:28N 10°24' W 075°32'0 0.0
2019-Jan-06 21:58N 10°24' W 075°32'0 0.0
2019-Jan-06 21:28N 10°24' W 075°32'0 0.0
2019-Jan-06 20:58N 10°24' W 075°32'0 0.0
2019-Jan-06 20:22N 10°24' W 075°32'0 0.0
2019-Jan-06 19:58N 10°24' W 075°32'0 0.0
2019-Jan-06 19:28N 10°24' W 075°32'0 0.0
2019-Jan-06 18:52N 10°24' W 075°32'0 0.0
2019-Jan-06 18:28N 10°24' W 075°32'1 3.2
2019-Jan-06 18:00N 10°23' W 075°33'1 2.9
2019-Jan-06 17:30N 10°22' W 075°32'2 4.7
2019-Jan-06 17:00N 10°20' W 075°33'4 8.8
2019-Jan-06 16:30N 10°20' W 075°38'714.8
2019-Jan-06 16:00N 10°25' W 075°42'2017.9
2019-Jan-06 14:53N 10°44' W 075°35'  
2019-Jan-02 09:39N 14°04' W 061°04'3 9.1
2019-Jan-02 09:18N 14°07' W 061°06'3 8.9
2019-Jan-02 08:58N 14°09' W 061°08'5 9.4
2019-Jan-02 08:28N 14°13' W 061°10'4 9.5
2019-Jan-02 08:00N 14°17' W 061°13'4 8.9
2019-Jan-02 07:30N 14°20' W 061°16'7 8.8
2019-Jan-02 06:43N 14°27' W 061°19'2 0.6
2019-Jan-02 03:58N 14°27' W 061°20'4 7.4
2019-Jan-02 03:26N 14°27' W 061°16'15 1.0
2019-Jan-01 12:31N 14°36' W 061°05'0 0.2
2019-Jan-01 12:23N 14°36' W 061°05'  

Dump ship's entire track history